Portada
METAR-TAF:

METAR-TAF

Aeropuertos :

Taylorville Municipal Airport

Taylorville, Illinois, Estados Unidos

latitud: 39-32-03N, longitud: 089-19-40W, altitud: 190 m

Observación

El informe se hizo hace 44 minutos, a las 20:35 UTC
Viento 8 kt del oeste-suroeste, variando entre este y oeste
Temperatura 32°C
Humedad 46%
Presión 1022 hPa
Visibilidad: 16.1 km
Cielo despejado

METAR: KTAZ 192035Z AUTO 24008KT 100V260 10SM CLR 32/19 A3019 RMK AO2 T03240187

Hora: 16:19 (21:19 UTC)


TAF: falta

Observaciones y pronósticos meteorológicos de más de 4000 aeropuertos (mensajes METAR y TAF).

Los puntos amarillos y rojos representan las estaciones disponibles.

Ponga el ratón en el punto deseado para ver el nombre de la estación.

Haga clic para ver las observaciones y los pronósticos meteorológicos.

Para cambiar el mapa : haga clic en los botones verdes con una cruz de color negro para hacer un zoom, en el botón verde con un guión para alejar o en las flechas verdes para mapas adyacentes.


METAR-TAF: